Terminal Aerodrome Forecast
Issued by NWS

Home | Current Version | Previous Version | Text Only | Print | Product List | Glossary On
Versions: 1 2 3 4 5 6 7 8 9 10 11 12 13 14
750
FTUS46 KSTO 050703 AAA
TAFRBL
TAF AMD
KRBL 050703Z 0507/0606 VRB04KT 5SM BR SCT060
      TEMPO 0507/0511 2SM BR
     FM051100 32007KT P6SM SCT050
     FM051800 35011G21KT P6SM FEW050 SCT250
     FM060200 34006KT P6SM BKN250=

USA.gov is the U.S. government's official web portal to all federal, state and local government web resources and services.